Terminal Aerodrome Forecast
Issued by NWS

Home | Current Version | Previous Version | Text Only | Print | Product List | Glossary On
Versions: 1 2 3 4 5 6 7 8 9 10 11 12 13 14 15 16 17 18 19 20 21 22 23
000
FTUS43 KDLH 310539
TAFHIB
TAF
KHIB 310539Z 3106/0106 15003KT P6SM SKC
     FM310900 17002KT 4SM BR BKN005
     FM311400 20011KT P6SM FEW250
     FM311700 20011G19KT P6SM SCT040 BKN250
     FM010000 20005KT P6SM SCT040 BKN120=

USA.gov is the U.S. government's official web portal to all federal, state and local government web resources and services.